Nearby METAR Reports

 

ENCN - Kristiansand/Kje, Norway
Distance from station: N 17km
Oppdatert: 06/02/2023 22:20
Hovedsaklig skyet
Hovedsaklig skyet
 Vind fra VSV
Vind: VSV 6 km/h
Temperatur: 3°C
Duggpunkt: 3°C
Fuktighet: 100%
Barometer: 1036 hPa
Clouds: Hovedsaklig skyet
Visibility: 10 km
Cloud details: Hovedsaklig skyet 244 m
2023/02/06 21:20 ENCN 062120Z 24003KT 9999 BKN008 03/03 Q1036
EKSN - Sindal Airport, Denmark
Distance from station: ØSØ 145km
Oppdatert: 30/12/2021 14:50
NOT Current
Mist, Hovedsaklig skyet
Mist, Hovedsaklig skyet
 Vind fra SV
Vind: SV 26 km/h
Temperatur: 7°C
Wind Chill: 3°C
Duggpunkt: 7°C
Fuktighet: 100%
Barometer: 999 hPa
Oversikt: Mist
Clouds: Hovedsaklig skyet
Visibility: 5 km
Cloud details: Delvis skyet 183 m
Hovedsaklig skyet 244 m
2021/12/30 13:50 EKSN 301350Z 23014KT 4500 BR SCT006 BKN008 07/07 Q0999
 
EKYT - Alborg, Denmark
Distance from station: SØ 153km
Oppdatert: 06/02/2023 22:20
Mist, Overskyet
Mist, Overskyet
 Vind fra SSV
Vind: SSV 19 km/h
Temperatur: 2°C
Wind Chill: -2°C
Duggpunkt: 2°C
Fuktighet: 100%
Barometer: 1039 hPa
Oversikt: Mist
Clouds: Overskyet
Visibility: 1 km
Cloud details: Overskyet 61 m
2023/02/06 21:20 EKYT 062120Z AUTO 20010KT 1300 R08L/P1500U R26R/P1500U BR OVC002/// 02/02 Q1039
ENSN - Skien/Geiterygge, Norway
Distance from station: NØ 153km
Oppdatert: 09/11/2015 09:50
NOT Current
Klart
Klart
 Vind fra SSV
Vind: SSV 19 km/h, Vindkast: 41 km/h
Temperatur: 7°C
Wind Chill: 4°C
Duggpunkt: 3°C
Fuktighet: 76%
Barometer: 1000 hPa
Oversikt: Klart
Visibility: greater than 10 km
2015/11/09 08:50 ENSN 090850Z 20010G22KT 150V240 CAVOK 07/03 Q1000
 
ENZV - Stavanger/Sola(A, Norway
Distance from station: NV 166km
Oppdatert: 06/02/2023 22:20
Hovedsaklig skyet
Hovedsaklig skyet
 Vind fra SSØ
Vind: SSØ 19 km/h
Temperatur: 6°C
Wind Chill: 3°C
Duggpunkt: 4°C
Fuktighet: 87%
Barometer: 1035 hPa
Clouds: Hovedsaklig skyet
Visibility: 10 km
Cloud details: Hovedsaklig skyet 396 m
2023/02/06 21:20 ENZV 062120Z 16010KT 9999 BKN013 06/04 Q1035
ENNO - Notodden, Norway
Distance from station: NNØ 182km
Oppdatert: 06/02/2023 18:50
NOT Current
Mist, Hovedsaklig skyet
Mist, Hovedsaklig skyet
 Vind fra calm
Vind: Stille
Temperatur: -6°C
Duggpunkt: -7°C
Fuktighet: 93%
Barometer: 1036 hPa
Oversikt: Mist
Clouds: Hovedsaklig skyet
Visibility: 3 km
Cloud details: Hovedsaklig skyet 61 m
2023/02/06 17:50 ENNO 061750Z 00000KT 3000 BR BKN002 M06/M07 Q1036
 
ENTO - Torp (civ/Nor-Af, Norway
Distance from station: NØ 183km
Oppdatert: 06/02/2023 22:20
Klart
Klart
 Vind fra SV
Vind: SV 11 km/h
Temperatur: 0°C
Wind Chill: -4°C
Duggpunkt: 0°C
Fuktighet: 100%
Barometer: 1034 hPa
Oversikt: Klart
Visibility: greater than 10 km
2023/02/06 21:20 ENTO 062120Z 22006KT 170V240 CAVOK 00/00 Q1034 NOSIG
EKKA - Karup (dan-Afb), Denmark
Distance from station: SSØ 209km
Oppdatert: 06/02/2023 22:24
Mist, Overskyet
Mist, Overskyet
 Vind fra SSV
Vind: SSV 13 km/h
Temperatur: 3°C
Wind Chill: -1°C
Duggpunkt: 2°C
Fuktighet: 93%
Barometer: 1039 hPa
Oversikt: Mist
Clouds: Overskyet
Visibility: 4 km
Cloud details: Overskyet 91 m
2023/02/06 21:24 EKKA 062124Z AUTO 20007KT 4200 BR OVC003/// 03/02 Q1039
 
ENHD - Haugesund/Karmoy, Norway
Distance from station: NV 216km
Oppdatert: 06/02/2023 22:20
Mist, Overskyet
Mist, Overskyet
 Vind fra SSØ
Vind: SSØ 19 km/h
Temperatur: 6°C
Wind Chill: 3°C
Duggpunkt: 4°C
Fuktighet: 87%
Barometer: 1034 hPa
Oversikt: Mist
Clouds: Overskyet
Visibility: 5 km
Cloud details: Delvis skyet 183 m
Hovedsaklig skyet 274 m
Overskyet 335 m
2023/02/06 21:20 ENHD 062120Z AUTO 16010KT 5000 BR SCT006/// BKN009/// OVC011/// 06/04 Q1034
ENRY - Rygge (nor-Afb), Norway
Distance from station: NØ 216km
Oppdatert: 06/02/2023 22:20
Overskyet
Overskyet
 Vind fra S
Vind: S 11 km/h
Temperatur: 2°C
Wind Chill: -1°C
Duggpunkt: 2°C
Fuktighet: 100%
Barometer: 1034 hPa
Clouds: Overskyet
Visibility: 7 km
Cloud details: Hovedsaklig skyet 91 m
Overskyet 152 m
2023/02/06 21:20 ENRY 062120Z AUTO 19006KT 7000NDV BKN003/// OVC005/// 02/02 Q1034
 
ESGP - Goteborg/Save (a, Sweden
Distance from station: Ø 230km
Oppdatert: 06/02/2023 22:20
Tåke, Overskyet
Tåke, Overskyet
 Vind fra SSV
Vind: SSV 19 km/h
Temperatur: 1°C
Wind Chill: -4°C
Duggpunkt: 1°C
Fuktighet: 100%
Barometer: 1038 hPa
Oversikt: Tåke
Clouds: Overskyet
Visibility: 0 km
Cloud details: Overskyet 30 m
2023/02/06 21:20 ESGP 062120Z AUTO 21010KT 0400 R01/1200U R19/1300U FG OVC001/// 01/01 Q1038 REUP
EKVJ - Stauning Airport, Denmark
Distance from station: S 233km
Oppdatert: 06/02/2023 13:50
NOT Current
Few Clouds
Few Clouds
 Vind fra S
Vind: S 6 km/h
Temperatur: 6°C
Duggpunkt: 4°C
Fuktighet: 87%
Barometer: 1040 hPa
Clouds: Few Clouds
Visibility: 10 km
Cloud details: Few Clouds 183 m
2023/02/06 12:50 EKVJ 061250Z 17003KT 9999 FEW006 06/04 Q1040
 
ENSO - Stord/Soerstokke, Norway
Distance from station: NV 246km
Oppdatert: 06/02/2023 17:20
NOT Current
Delvis skyet
Delvis skyet
 Vind fra ØSØ
Vind: ØSØ 22 km/h
Temperatur: 5°C
Wind Chill: 1°C
Duggpunkt: 3°C
Fuktighet: 87%
Barometer: 1035 hPa
Clouds: Delvis skyet
Visibility: 10 km
Cloud details: Few Clouds 488 m
Delvis skyet 914 m
2023/02/06 16:20 ENSO 061620Z 12012KT 9999 FEW016 SCT030 05/03 Q1035
EKAH - Tirstrup (civ/Mi, Denmark
Distance from station: SØ 252km
Oppdatert: 06/02/2023 22:20
Overskyet
Overskyet
 Vind fra SSV
Vind: SSV 7 km/h
Temperatur: 2°C
Wind Chill: 0°C
Duggpunkt: 1°C
Fuktighet: 93%
Barometer: 1040 hPa
Clouds: Overskyet
Visibility: 7 km
Cloud details: Overskyet 122 m
2023/02/06 21:20 EKAH 062120Z AUTO 21004KT 150V250 7000 OVC004/// 02/01 Q1040
 
ESGT - Trollhattan (pvt, Sweden
Distance from station: Ø 255km
Oppdatert: 06/02/2023 22:20
Tåke, Overskyet
Tåke, Overskyet
 Vind fra S
Vind: S 15 km/h
Temperatur: 1°C
Wind Chill: -3°C
Duggpunkt: 0°C
Fuktighet: 93%
Barometer: 1037 hPa
Oversikt: Tåke
Clouds: Overskyet
Visibility: 1 km
Cloud details: Overskyet 61 m
2023/02/06 21:20 ESGT 062120Z AUTO 18008KT 0800 R15///// R33///// FG OVC002/// 01/00 Q1037
ESGG - Goteborg/Landvet, Sweden
Distance from station: Ø 257km
Oppdatert: 06/02/2023 22:20
Underkjølt tåke, Overskyet
Underkjølt tåke, Overskyet
 Vind fra S
Vind: S 17 km/h
Temperatur: -1°C
Wind Chill: -6°C
Duggpunkt: -1°C
Fuktighet: 100%
Barometer: 1038 hPa
Oversikt: Underkjølt tåke
Clouds: Overskyet
Visibility: 0 km
Cloud details: Overskyet 61 m
2023/02/06 21:20 ESGG 062120Z 19009KT 0200 R03/0800N R21/0700N FZFG VV002 M01/M01 Q1038
 
EKBI - Billund Airport, Denmark
Distance from station: SSØ 269km
Oppdatert: 06/02/2023 22:20
Mist, Overskyet
Mist, Overskyet
 Vind fra S
Vind: S 11 km/h
Temperatur: 2°C
Wind Chill: -1°C
Duggpunkt: 2°C
Fuktighet: 100%
Barometer: 1040 hPa
Oversikt: Mist
Clouds: Overskyet
Visibility: 3 km
Cloud details: Overskyet 61 m
2023/02/06 21:20 EKBI 062120Z AUTO 17006KT 3400 BR OVC002/// 02/02 Q1040
EKHN - Horns Rev B Heli, Denmark
Distance from station: S 274km
Oppdatert: 09/08/2016 14:20
NOT Current
Few Clouds
Few Clouds
 Vind fra VNV
Vind: VNV 50 km/h, Vindkast: 72 km/h
Temperatur: 14°C
Duggpunkt: 10°C
Fuktighet: 77%
Barometer: 1018 hPa
Clouds: Few Clouds
Visibility: 10 km
Cloud details: Few Clouds 1158 m
Few Clouds 2438 m
2016/08/09 12:20 EKHN 091220Z AUTO 29027G39KT 270V340 9999NDV FEW038/// FEW080/// 14/10 Q1018
 
ESIB - Satenas (swe-Afb, Sweden
Distance from station: Ø 277km
Oppdatert: 06/02/2023 22:20
Mist, Overskyet
Mist, Overskyet
 Vind fra SSV
Vind: SSV 20 km/h
Temperatur: 1°C
Wind Chill: -4°C
Duggpunkt: 1°C
Fuktighet: 100%
Barometer: 1037 hPa
Oversikt: Mist
Clouds: Overskyet
Visibility: 2 km
Cloud details: Overskyet 61 m
2023/02/06 21:20 ESIB 062120Z AUTO 21011KT 1800 BR OVC002/// 01/01 Q1037
EKHR - Horns Rev B Heli, Denmark
Distance from station: S 282km
Oppdatert: 04/10/2016 06:20
NOT Current
Klart
Klart
 Vind fra Ø
Vind: Ø 4 km/h
Temperatur: 11°C
Duggpunkt: -49°C
Fuktighet: 0%
Barometer: 1038 hPa
Clouds: Klart
Visibility: 10 km
2016/10/04 04:20 EKHR 040420Z AUTO 08002KT 9999NDV NCD 11/M49 Q1038